Time;durP1;ratioP1;P1;durP2;ratioP2;P2;SDS_P1;SDS_P2;PMS_P1;PMS_P2;Temp;Humidity;BMP_temperature;BMP_pressure;BME280_temperature;BME280_humidity;BME280_pressure;Samples;Min_cycle;Max_cycle;Signal;HPM_P1;HPM_P2
2022/06/02 00:01:17;;;;;;;20.15;11.32;;;18.60;99.90;;;;;;5007398;28;20510;-85
2022/06/02 00:04:18;;;;;;;19.25;11.98;;;18.60;99.90;;;;;;5013619;28;20435;-85
2022/06/02 00:06:58;;;;;;;19.77;11.73;;;18.60;99.90;;;;;;5021428;28;20181;-86
2022/06/02 00:10:02;;;;;;;20.50;12.57;;;18.60;99.90;;;;;;5040602;28;20079;-86
2022/06/02 00:13:10;;;;;;;21.13;12.07;;;18.70;99.90;;;;;;5024459;28;20049;-86
2022/06/02 00:15:41;;;;;;;16.27;12.35;;;18.60;99.90;;;;;;5036698;28;20045;-86
2022/06/02 00:18:22;;;;;;;22.83;12.63;;;18.50;99.90;;;;;;5038355;28;20048;-86
2022/06/02 00:21:37;;;;;;;21.05;13.18;;;18.50;99.90;;;;;;5042218;28;20021;-85
2022/06/02 00:24:30;;;;;;;16.40;12.25;;;18.60;99.90;;;;;;5028633;28;20022;-85
2022/06/02 00:27:15;;;;;;;23.85;13.43;;;18.50;99.90;;;;;;5034294;28;20492;-85
2022/06/02 00:29:54;;;;;;;18.50;12.25;;;18.50;99.90;;;;;;5035170;28;20022;-85
2022/06/02 00:32:35;;;;;;;35.25;13.20;;;18.50;99.90;;;;;;5020137;28;20400;-85
2022/06/02 00:35:20;;;;;;;22.33;12.95;;;18.40;99.90;;;;;;5023273;28;20103;-84
2022/06/02 00:38:06;;;;;;;25.42;13.05;;;18.40;99.90;;;;;;5038437;28;20048;-84
2022/06/02 00:40:38;;;;;;;19.83;12.25;;;18.30;99.90;;;;;;5041212;28;20013;-85
2022/06/02 00:43:31;;;;;;;18.77;11.93;;;18.30;99.90;;;;;;5016252;28;20052;-85
2022/06/02 00:46:06;;;;;;;23.10;12.48;;;18.40;99.90;;;;;;5039345;28;20537;-86
2022/06/02 00:48:59;;;;;;;19.05;11.70;;;18.30;99.90;;;;;;5042363;28;20035;-85
2022/06/02 00:51:55;;;;;;;15.40;11.35;;;18.30;99.90;;;;;;5041550;28;20044;-85
2022/06/02 00:57:52;;;;;;;18.60;12.30;;;18.30;99.90;;;;;;5045643;28;20415;-85
2022/06/02 01:00:24;;;;;;;19.60;12.65;;;18.30;99.90;;;;;;5022872;28;20037;-85
2022/06/02 01:02:59;;;;;;;25.67;12.20;;;18.30;99.90;;;;;;5046920;28;20048;-85
2022/06/02 01:06:02;;;;;;;23.63;12.38;;;18.30;99.90;;;;;;5044564;28;20029;-85
2022/06/02 01:08:52;;;;;;;16.88;11.60;;;18.30;99.90;;;;;;5041425;28;20022;-86
2022/06/02 01:11:52;;;;;;;19.05;11.48;;;18.20;99.90;;;;;;5043855;28;20494;-85
2022/06/02 01:14:28;;;;;;;14.45;10.50;;;18.20;99.90;;;;;;5025349;28;20026;-84
2022/06/02 01:17:26;;;;;;;18.38;12.52;;;18.20;99.90;;;;;;5019262;28;20057;-85
2022/06/02 01:20:09;;;;;;;22.40;12.77;;;18.30;99.90;;;;;;5043823;28;20021;-85
2022/06/02 01:23:11;;;;;;;20.00;12.45;;;18.30;99.90;;;;;;5047508;28;20385;-86
2022/06/02 01:25:37;;;;;;;18.70;11.90;;;18.30;99.90;;;;;;5023110;28;20033;-85
2022/06/02 01:28:58;;;;;;;21.52;12.85;;;18.30;99.90;;;;;;5018856;28;20028;-85
2022/06/02 01:38:43;;;;;;;18.45;12.07;;;18.40;99.90;;;;;;5039960;28;20036;-85
2022/06/02 01:42:04;;;;;;;;;;;;;;;;;;;;;
2022/06/02 01:45:05;;;;;;;20.88;11.23;;;18.50;99.90;;;;;;5043807;28;20044;-85
2022/06/02 01:47:36;;;;;;;17.02;11.25;;;18.50;99.90;;;;;;5023656;28;20069;-85
2022/06/02 01:50:44;;;;;;;17.65;10.82;;;18.40;99.90;;;;;;5042801;28;20055;-84
2022/06/02 01:53:41;;;;;;;23.77;11.05;;;18.40;99.90;;;;;;5036527;28;20064;-85
2022/06/02 02:00:06;;;;;;;17.80;10.82;;;18.50;99.90;;;;;;4951326;28;20457;-86
2022/06/02 02:02:59;;;;;;;20.98;10.40;;;18.40;99.90;;;;;;5037226;28;20071;-85
2022/06/02 02:05:40;;;;;;;20.77;10.88;;;18.40;99.90;;;;;;5043154;28;20021;-86
2022/06/02 02:08:52;;;;;;;18.20;10.73;;;18.30;99.90;;;;;;5018363;28;20035;-86
2022/06/02 02:11:44;;;;;;;25.70;11.18;;;18.30;99.90;;;;;;5040970;28;20078;-84
2022/06/02 02:14:37;;;;;;;24.75;10.25;;;18.30;99.90;;;;;;5025402;28;20035;-84
2022/06/02 02:17:40;;;;;;;23.30;10.05;;;18.30;99.90;;;;;;5019367;28;20087;-84
2022/06/02 02:20:35;;;;;;;15.95;10.50;;;18.40;99.90;;;;;;5044185;28;20052;-84
2022/06/02 02:23:32;;;;;;;23.42;11.02;;;18.40;99.90;;;;;;5035821;28;20018;-84
2022/06/02 02:26:23;;;;;;;16.45;9.60;;;18.40;99.90;;;;;;5046145;28;20065;-85
2022/06/02 02:29:36;;;;;;;17.08;10.35;;;18.30;99.90;;;;;;5024391;28;20032;-84
2022/06/02 02:32:20;;;;;;;17.13;10.55;;;18.30;99.90;;;;;;4961212;28;20042;-84
2022/06/02 02:35:23;;;;;;;18.17;10.13;;;18.30;99.90;;;;;;5023819;28;20586;-84
2022/06/02 02:38:04;;;;;;;16.38;10.30;;;18.30;99.90;;;;;;5043061;28;20040;-84
2022/06/02 02:40:38;;;;;;;21.40;9.93;;;18.30;99.90;;;;;;5029650;28;20083;-84
2022/06/02 02:43:33;;;;;;;17.00;9.35;;;18.30;99.90;;;;;;5036182;28;20021;-84
2022/06/02 02:46:17;;;;;;;13.30;9.48;;;18.30;99.90;;;;;;5031427;28;20471;-84
2022/06/02 02:49:12;;;;;;;18.98;9.98;;;18.30;99.90;;;;;;5034044;28;20017;-84
2022/06/02 02:52:16;;;;;;;14.13;10.20;;;18.30;99.90;;;;;;5039543;28;20053;-84
2022/06/02 02:55:28;;;;;;;15.82;10.07;;;18.40;99.90;;;;;;5039943;28;20017;-84
2022/06/02 02:58:31;;;;;;;21.38;10.50;;;18.40;99.90;;;;;;5035241;28;20112;-85
2022/06/02 03:01:09;;;;;;;17.63;9.13;;;18.40;99.90;;;;;;5021142;28;20033;-86
2022/06/02 03:04:11;;;;;;;15.65;9.02;;;18.30;99.90;;;;;;5046161;28;20033;-85
2022/06/02 03:06:44;;;;;;;19.52;9.27;;;18.30;99.90;;;;;;5031326;28;20208;-84
2022/06/02 03:09:58;;;;;;;17.30;9.93;;;18.30;99.90;;;;;;5042159;28;20124;-84
2022/06/02 03:12:59;;;;;;;17.77;8.80;;;18.30;99.90;;;;;;5030457;28;20492;-83
2022/06/02 03:16:06;;;;;;;12.10;9.02;;;18.30;99.90;;;;;;5009922;28;20033;-84
2022/06/02 03:18:32;;;;;;;14.88;9.05;;;18.30;99.90;;;;;;5012121;28;20060;-84
2022/06/02 03:21:15;;;;;;;17.02;9.45;;;18.30;99.90;;;;;;5045524;28;20044;-84
2022/06/02 03:24:14;;;;;;;14.73;9.60;;;18.20;99.90;;;;;;5020580;28;20029;-84
2022/06/02 03:26:49;;;;;;;13.40;9.45;;;18.20;99.90;;;;;;5023738;28;20087;-84
2022/06/02 03:29:41;;;;;;;12.55;8.73;;;18.20;99.90;;;;;;5039881;28;20051;-84
2022/06/02 03:32:51;;;;;;;20.92;9.93;;;18.20;99.90;;;;;;5033077;28;20033;-84
2022/06/02 03:35:26;;;;;;;17.75;9.60;;;18.30;99.90;;;;;;5039893;28;20057;-85
2022/06/02 03:37:58;;;;;;;13.52;9.18;;;18.20;99.90;;;;;;5013989;28;20362;-85
2022/06/02 03:41:07;;;;;;;16.52;9.10;;;18.20;99.90;;;;;;5023930;28;20080;-85
2022/06/02 03:44:21;;;;;;;16.67;8.88;;;18.20;99.90;;;;;;5039541;28;20095;-84
2022/06/02 03:50:36;;;;;;;17.15;8.90;;;18.30;99.90;;;;;;5037484;28;20085;-84
2022/06/02 03:53:45;;;;;;;15.20;8.48;;;18.30;99.90;;;;;;5029937;28;20123;-85
2022/06/02 03:56:47;;;;;;;18.90;8.80;;;18.30;99.90;;;;;;4955547;28;20063;-84
2022/06/02 04:02:51;;;;;;;12.65;8.27;;;18.40;99.90;;;;;;4981716;28;20097;-85
2022/06/02 04:05:51;;;;;;;14.15;8.35;;;18.50;99.90;;;;;;5021878;28;20033;-85
2022/06/02 04:08:29;;;;;;;19.48;8.90;;;18.50;99.90;;;;;;5036377;28;20361;-86
2022/06/02 04:13:37;;;;;;;10.45;7.95;;;18.60;99.90;;;;;;5044539;28;20514;-86
2022/06/02 04:14:57;;;;;;;12.15;7.32;;;18.60;99.90;;;;;;5038824;28;20033;-86
2022/06/02 04:17:43;;;;;;;18.15;7.78;;;18.70;99.90;;;;;;5035486;28;20041;-87
2022/06/02 04:20:35;;;;;;;11.00;7.68;;;18.80;99.90;;;;;;5042585;28;20067;-87
2022/06/02 04:23:11;;;;;;;;;;;18.80;99.90;;;;;;5010491;28;20021;-87
2022/06/02 04:25:54;;;;;;;11.90;7.18;;;18.90;99.90;;;;;;5038848;28;19905;-87
2022/06/02 04:28:50;;;;;;;14.27;7.80;;;18.90;99.90;;;;;;5041234;28;20026;-87
2022/06/02 04:31:37;;;;;;;13.70;7.40;;;19.00;99.90;;;;;;5033272;28;20112;-86
2022/06/02 04:34:13;;;;;;;10.32;7.22;;;19.10;99.90;;;;;;5036672;28;20033;-87
2022/06/02 04:36:54;;;;;;;17.50;7.57;;;19.20;99.90;;;;;;5035994;28;20527;-87
2022/06/02 04:40:03;;;;;;;13.95;6.97;;;19.20;99.90;;;;;;5041621;28;20029;-87
2022/06/02 04:43:02;;;;;;;9.65;7.13;;;19.30;99.90;;;;;;5025070;28;20391;-87
2022/06/02 04:45:55;;;;;;;13.23;7.20;;;19.30;99.90;;;;;;5038011;28;20423;-86
2022/06/02 04:48:26;;;;;;;12.35;6.97;;;19.40;99.90;;;;;;5018578;28;20021;-86
2022/06/02 04:51:16;;;;;;;10.70;6.70;;;19.50;99.90;;;;;;5038098;28;20091;-86
2022/06/02 04:53:51;;;;;;;10.73;6.38;;;19.60;99.90;;;;;;5006206;28;20049;-86
2022/06/02 04:56:43;;;;;;;11.93;6.60;;;19.70;99.90;;;;;;5020308;28;20018;-87
2022/06/02 04:59:23;;;;;;;14.30;6.50;;;19.80;99.90;;;;;;5014971;28;20033;-86
2022/06/02 05:02:06;;;;;;;14.00;6.28;;;19.90;99.90;;;;;;5017442;28;20272;-86
2022/06/02 05:04:53;;;;;;;14.68;6.45;;;20.00;99.90;;;;;;5041826;28;20500;-86
2022/06/02 05:07:35;;;;;;;20.02;6.45;;;20.10;99.90;;;;;;5036083;28;20030;-86
2022/06/02 05:10:07;;;;;;;15.15;7.45;;;20.10;99.90;;;;;;5023266;28;20029;-86
2022/06/02 05:13:05;;;;;;;10.63;6.45;;;20.10;99.90;;;;;;5015433;28;20037;-86
2022/06/02 05:15:49;;;;;;;12.00;6.07;;;20.20;99.90;;;;;;5005431;28;20033;-86
2022/06/02 05:18:39;;;;;;;13.30;5.93;;;20.30;99.90;;;;;;5017801;28;20026;-85
2022/06/02 05:21:29;;;;;;;16.40;6.50;;;20.40;99.90;;;;;;5036821;28;20387;-85
2022/06/02 05:24:43;;;;;;;13.88;6.05;;;20.50;99.90;;;;;;5010569;28;20021;-86
2022/06/02 05:27:22;;;;;;;10.98;5.90;;;20.60;99.90;;;;;;4937126;28;20053;-86
2022/06/02 05:30:09;;;;;;;9.95;5.95;;;20.70;99.90;;;;;;5039393;28;20025;-86
2022/06/02 05:33:06;;;;;;;15.40;6.13;;;20.80;99.90;;;;;;5047692;28;20093;-86
2022/06/02 05:35:59;;;;;;;15.05;6.00;;;20.90;99.90;;;;;;5022646;28;20396;-86
2022/06/02 05:38:34;;;;;;;12.00;6.28;;;21.00;99.90;;;;;;5040489;28;20476;-86
2022/06/02 05:41:00;;;;;;;18.13;5.65;;;21.10;99.90;;;;;;5030105;28;20036;-86
2022/06/02 05:43:46;;;;;;;14.80;5.80;;;21.20;99.90;;;;;;5027716;28;20029;-85
2022/06/02 05:46:53;;;;;;;10.23;5.32;;;21.30;99.90;;;;;;4969556;28;20519;-86
2022/06/02 05:49:34;;;;;;;10.90;6.20;;;21.40;99.90;;;;;;4995810;28;20041;-86
2022/06/02 05:51:59;;;;;;;11.93;5.72;;;21.50;99.90;;;;;;5045071;28;20127;-91
2022/06/02 05:54:55;;;;;;;10.90;6.22;;;21.50;99.90;;;;;;5040505;28;20108;-83
2022/06/02 05:57:46;;;;;;;12.02;5.78;;;21.60;99.90;;;;;;5020782;28;20082;-82
2022/06/02 06:00:41;;;;;;;13.73;5.85;;;21.70;99.90;;;;;;5040726;28;20040;-84
2022/06/02 06:03:12;;;;;;;10.65;5.30;;;21.80;99.90;;;;;;5017080;28;20025;-87
2022/06/02 06:05:53;;;;;;;14.40;5.80;;;21.90;99.90;;;;;;5042958;28;20124;-86
2022/06/02 06:08:25;;;;;;;8.40;5.32;;;22.00;99.90;;;;;;5026980;28;20023;-86
2022/06/02 06:11:06;;;;;;;11.30;5.88;;;22.10;99.90;;;;;;5042977;28;20074;-85
2022/06/02 06:13:41;;;;;;;14.75;6.15;;;22.10;99.90;;;;;;5013484;28;20158;-85
2022/06/02 06:16:24;;;;;;;10.45;6.05;;;22.20;99.90;;;;;;5037442;28;20459;-86
2022/06/02 06:19:14;;;;;;;11.95;5.32;;;22.30;99.90;;;;;;5010951;28;20057;-84
2022/06/02 06:21:58;;;;;;;10.85;5.07;;;22.40;99.90;;;;;;5017454;28;20499;-86
2022/06/02 06:24:42;;;;;;;11.68;6.20;;;22.50;99.90;;;;;;5024106;28;20021;-85
2022/06/02 06:27:40;;;;;;;15.35;5.35;;;22.60;99.90;;;;;;5042457;28;20504;-85
2022/06/02 06:30:27;;;;;;;9.23;5.03;;;22.80;99.90;;;;;;5016271;28;20498;-84
2022/06/02 06:33:11;;;;;;;11.95;5.95;;;22.90;99.90;;;;;;5029298;28;20051;-84
2022/06/02 06:36:30;;;;;;;12.68;5.30;;;23.00;99.90;;;;;;5037998;28;20024;-84
2022/06/02 06:38:59;;;;;;;9.93;5.38;;;23.10;99.90;;;;;;4941159;29;20042;-84
2022/06/02 06:41:36;;;;;;;14.13;5.95;;;23.20;99.90;;;;;;5037762;28;20028;-84
2022/06/02 06:44:14;;;;;;;11.95;5.95;;;23.30;99.90;;;;;;5024146;28;20064;-84
2022/06/02 06:46:52;;;;;;;9.43;4.55;;;23.40;99.90;;;;;;5018443;28;20028;-85
2022/06/02 06:49:41;;;;;;;9.75;5.57;;;23.40;99.90;;;;;;5040499;28;20032;-83
2022/06/02 06:52:15;;;;;;;8.40;4.78;;;23.60;99.90;;;;;;5024644;28;20040;-83
2022/06/02 06:55:00;;;;;;;13.05;5.53;;;23.70;99.90;;;;;;5020142;28;20036;-83
2022/06/02 06:57:56;;;;;;;8.80;5.18;;;23.80;99.90;;;;;;5046236;28;20503;-84
2022/06/02 07:00:28;;;;;;;10.15;4.75;;;23.80;99.90;;;;;;5042514;28;20544;-84
2022/06/02 07:03:02;;;;;;;13.18;4.78;;;23.90;99.90;;;;;;5035206;28;20082;-84
2022/06/02 07:05:46;;;;;;;14.70;6.53;;;23.90;99.90;;;;;;5042693;28;20066;-83
2022/06/02 07:08:17;;;;;;;16.00;4.95;;;23.90;99.90;;;;;;5023468;28;20071;-84
2022/06/02 07:11:07;;;;;;;12.63;5.85;;;23.80;99.90;;;;;;5041764;28;20079;-84
2022/06/02 07:13:50;;;;;;;19.15;5.82;;;23.90;99.90;;;;;;5038587;28;20033;-84
2022/06/02 07:16:46;;;;;;;10.50;4.35;;;23.90;99.90;;;;;;5041267;28;20239;-85
2022/06/02 07:19:20;;;;;;;11.13;4.45;;;24.00;99.90;;;;;;5021334;28;20048;-82
2022/06/02 07:21:52;;;;;;;13.32;4.35;;;24.20;99.90;;;;;;5013127;28;20109;-83
2022/06/02 07:24:36;;;;;;;8.98;3.72;;;24.30;99.90;;;;;;5024682;28;20412;-82
2022/06/02 07:27:37;;;;;;;7.90;3.67;;;24.50;99.90;;;;;;5035563;28;20087;-84
2022/06/02 07:30:03;;;;;;;8.27;3.78;;;24.50;99.90;;;;;;4956653;28;20100;-86
2022/06/02 07:32:59;;;;;;;7.03;3.63;;;24.60;99.90;;;;;;5007188;28;20057;-86
2022/06/02 07:35:42;;;;;;;12.70;4.45;;;24.70;99.90;;;;;;5029645;28;20542;-87
2022/06/02 07:38:30;;;;;;;12.35;4.18;;;24.70;99.90;;;;;;5031592;28;20048;-87
2022/06/02 07:40:58;;;;;;;7.38;3.75;;;24.80;99.90;;;;;;5034492;28;20502;-87
2022/06/02 07:43:25;;;;;;;11.43;4.45;;;25.00;99.90;;;;;;5023192;28;20033;-88
2022/06/02 07:46:12;;;;;;;8.75;3.80;;;25.10;99.90;;;;;;5039351;28;20025;-87
2022/06/02 07:49:11;;;;;;;9.50;4.03;;;25.10;99.90;;;;;;5041527;28;20027;-87
2022/06/02 07:51:40;;;;;;;9.57;4.32;;;25.10;99.90;;;;;;4984721;28;20045;-87
2022/06/02 07:54:25;;;;;;;6.60;3.42;;;25.10;99.90;;;;;;5021316;28;20116;-88
2022/06/02 07:57:07;;;;;;;13.63;4.00;;;25.20;99.90;;;;;;5037146;28;20017;-88
2022/06/02 07:59:57;;;;;;;8.80;4.00;;;25.40;99.90;;;;;;5038268;28;20028;-88
2022/06/02 08:02:59;;;;;;;10.90;4.07;;;25.60;99.90;;;;;;5015853;28;20128;-90
2022/06/02 08:05:43;;;;;;;8.77;3.90;;;25.60;99.90;;;;;;5035414;28;20029;-89
2022/06/02 08:08:33;;;;;;;18.65;3.83;;;25.70;99.90;;;;;;5031231;28;20105;-85
2022/06/02 08:11:29;;;;;;;10.27;4.10;;;25.70;99.90;;;;;;5029944;28;20292;-85
2022/06/02 08:14:07;;;;;;;10.43;4.07;;;25.80;99.90;;;;;;5019968;28;20519;-85
2022/06/02 08:17:00;;;;;;;11.93;3.95;;;25.80;99.90;;;;;;5040016;28;20033;-85
2022/06/02 08:19:41;;;;;;;7.82;3.42;;;25.90;99.90;;;;;;5034013;28;20021;-85
2022/06/02 08:22:17;;;;;;;19.55;4.20;;;26.10;99.90;;;;;;5038465;28;20500;-83
2022/06/02 08:24:53;;;;;;;19.85;5.35;;;26.20;99.90;;;;;;5037884;28;20022;-84
2022/06/02 08:27:38;;;;;;;17.85;5.18;;;26.20;99.90;;;;;;5033213;28;20534;-84
2022/06/02 08:30:37;;;;;;;19.38;4.75;;;26.20;99.90;;;;;;5019270;28;20377;-84
2022/06/02 08:33:41;;;;;;;16.30;4.40;;;26.20;99.90;;;;;;5011997;28;20037;-82
2022/06/02 08:36:06;;;;;;;9.35;4.97;;;26.20;99.90;;;;;;5016616;28;20384;-83
2022/06/02 08:38:38;;;;;;;14.80;5.57;;;26.10;99.90;;;;;;5019377;28;20021;-83
2022/06/02 08:41:28;;;;;;;11.30;5.43;;;26.10;99.90;;;;;;5007894;28;20526;-83
2022/06/02 08:44:05;;;;;;;6.97;4.45;;;26.10;99.90;;;;;;5029543;28;20022;-84
2022/06/02 08:47:02;;;;;;;13.68;4.68;;;26.20;99.90;;;;;;5017532;28;20025;-82
2022/06/02 08:50:10;;;;;;;13.88;4.85;;;26.00;99.90;;;;;;5027696;28;20032;-85
2022/06/02 08:52:57;;;;;;;14.02;5.40;;;26.10;99.90;;;;;;5033271;28;20292;-83
2022/06/02 08:55:59;;;;;;;10.77;5.35;;;26.10;99.90;;;;;;5034681;28;20083;-84
2022/06/02 08:58:56;;;;;;;30.40;5.67;;;26.20;99.90;;;;;;5035368;28;20112;-84
2022/06/02 09:01:37;;;;;;;10.43;4.82;;;26.10;99.90;;;;;;5019601;28;20284;-85
2022/06/02 09:04:05;;;;;;;7.85;4.57;;;26.00;99.90;;;;;;5046097;28;20048;-85
2022/06/02 09:06:46;;;;;;;8.30;5.03;;;25.90;99.90;;;;;;5043806;28;20025;-84
2022/06/02 09:09:32;;;;;;;10.95;5.28;;;25.80;99.90;;;;;;5039313;28;20099;-83
2022/06/02 09:12:44;;;;;;;11.27;5.45;;;25.70;99.90;;;;;;5041573;28;20025;-83
2022/06/02 09:15:13;;;;;;;16.20;5.72;;;25.60;99.90;;;;;;5014375;28;20045;-82
2022/06/02 09:18:01;;;;;;;15.35;5.95;;;25.70;99.90;;;;;;5039267;28;20025;-82
2022/06/02 09:20:30;;;;;;;17.50;7.97;;;25.80;99.90;;;;;;5040145;28;20052;-82
2022/06/02 09:23:22;;;;;;;11.98;5.85;;;26.00;99.90;;;;;;5028396;28;20052;-84
2022/06/02 09:26:00;;;;;;;11.52;5.30;;;26.10;99.90;;;;;;5026280;28;20064;-83
2022/06/02 09:28:51;;;;;;;12.93;5.25;;;26.00;99.90;;;;;;5041000;28;20025;-83
2022/06/02 09:31:28;;;;;;;14.63;6.80;;;26.00;99.90;;;;;;5036935;28;20159;-84
2022/06/02 09:34:33;;;;;;;16.90;6.90;;;26.20;99.90;;;;;;5036837;28;20682;-83
2022/06/02 09:37:31;;;;;;;14.52;5.80;;;26.20;99.90;;;;;;5037404;28;20029;-83
2022/06/02 09:40:19;;;;;;;22.27;8.55;;;26.20;99.90;;;;;;5043308;28;20052;-82
2022/06/02 09:43:18;;;;;;;11.07;5.43;;;26.20;99.90;;;;;;5040616;28;20013;-83
2022/06/02 09:46:08;;;;;;;22.20;8.52;;;26.20;99.90;;;;;;5040842;28;20108;-83
2022/06/02 09:48:58;;;;;;;8.38;5.38;;;26.20;99.90;;;;;;5044974;28;20033;-84
2022/06/02 09:51:55;;;;;;;12.15;6.63;;;26.30;99.90;;;;;;5024301;28;20048;-83
2022/06/02 09:54:34;;;;;;;11.27;5.13;;;26.60;99.90;;;;;;5040557;28;20025;-84
2022/06/02 09:57:55;;;;;;;10.48;5.32;;;26.50;99.90;;;;;;5037866;28;20494;-83
2022/06/02 10:00:18;;;;;;;12.88;5.22;;;26.30;99.90;;;;;;5044799;28;20557;-83
2022/06/02 10:03:02;;;;;;;11.90;4.95;;;26.40;99.90;;;;;;5017759;28;20017;-84
2022/06/02 10:05:43;;;;;;;15.30;5.30;;;26.40;99.90;;;;;;5039146;28;20419;-84
2022/06/02 10:08:26;;;;;;;14.30;6.68;;;26.40;99.90;;;;;;5035288;28;20021;-83
2022/06/02 10:11:11;;;;;;;12.32;5.25;;;26.40;99.90;;;;;;5036794;28;20483;-83
2022/06/02 10:13:57;;;;;;;12.77;4.80;;;26.20;99.90;;;;;;5027482;28;20211;-83
2022/06/02 10:16:47;;;;;;;12.98;6.47;;;25.70;99.90;;;;;;5005120;28;20523;-83
2022/06/02 10:19:15;;;;;;;21.58;13.32;;;25.40;99.90;;;;;;5043137;28;20090;-85
2022/06/02 10:22:20;;;;;;;16.42;7.80;;;25.20;99.90;;;;;;5043781;28;20522;-83
2022/06/02 10:25:04;;;;;;;15.48;6.05;;;24.80;99.90;;;;;;5039882;28;20029;-84
2022/06/02 10:27:57;;;;;;;18.15;7.80;;;24.70;99.90;;;;;;5037642;28;20025;-84
2022/06/02 10:30:57;;;;;;;13.40;5.20;;;24.60;99.90;;;;;;5020986;28;20033;-84
2022/06/02 10:34:12;;;;;;;23.30;9.68;;;24.70;99.90;;;;;;5039989;28;20634;-86
2022/06/02 10:36:41;;;;;;;19.08;8.55;;;24.80;99.90;;;;;;5044722;28;20029;-84
2022/06/02 10:39:06;;;;;;;15.68;5.75;;;25.10;99.90;;;;;;5041878;28;20496;-85
2022/06/02 10:42:02;;;;;;;11.63;6.55;;;25.10;99.90;;;;;;5044889;28;20026;-85
2022/06/02 10:44:47;;;;;;;14.13;5.45;;;25.00;99.90;;;;;;5039791;28;20025;-85
2022/06/02 10:47:54;;;;;;;12.95;6.30;;;24.90;99.90;;;;;;5021291;28;20026;-83
2022/06/02 10:50:46;;;;;;;16.75;7.47;;;25.00;99.90;;;;;;4977888;28;20068;-87
2022/06/02 10:53:20;;;;;;;12.73;5.93;;;25.00;99.90;;;;;;5023988;28;20454;-84
2022/06/02 10:56:37;;;;;;;16.08;7.80;;;25.10;99.90;;;;;;5045098;28;20021;-86
2022/06/02 10:59:21;;;;;;;13.52;6.28;;;25.20;99.90;;;;;;4932876;29;20128;-89
2022/06/02 11:02:28;;;;;;;13.73;5.70;;;25.30;99.90;;;;;;4932220;29;20035;-84
2022/06/02 11:05:25;;;;;;;13.45;6.18;;;25.40;99.90;;;;;;5007487;28;20137;-83
2022/06/02 11:08:06;;;;;;;12.43;6.13;;;25.40;99.90;;;;;;5014383;28;20037;-84
2022/06/02 11:11:13;;;;;;;14.20;7.13;;;25.40;99.90;;;;;;5018983;28;20020;-83
2022/06/02 11:14:18;;;;;;;9.65;5.68;;;25.50;99.90;;;;;;5040870;28;20047;-84
2022/06/02 11:16:47;;;;;;;26.60;6.25;;;25.70;99.90;;;;;;5031218;28;20091;-84
2022/06/02 11:19:54;;;;;;;13.48;6.22;;;25.80;99.90;;;;;;5042165;28;20043;-84
2022/06/02 11:22:48;;;;;;;24.42;12.30;;;25.80;99.90;;;;;;5039753;28;20488;-85
2022/06/02 11:25:20;;;;;;;21.90;8.45;;;25.90;99.90;;;;;;5036823;28;20018;-84
2022/06/02 11:28:08;;;;;;;19.85;8.23;;;25.80;99.90;;;;;;5040822;28;20042;-84
2022/06/02 11:30:40;;;;;;;33.42;14.00;;;25.70;99.90;;;;;;5024169;28;20017;-84
2022/06/02 11:33:34;;;;;;;27.27;10.10;;;25.60;99.90;;;;;;5043837;28;20059;-84
2022/06/02 11:36:16;;;;;;;15.40;8.27;;;25.60;99.90;;;;;;5022428;28;20033;-84
2022/06/02 11:39:18;;;;;;;20.90;8.25;;;25.80;99.90;;;;;;5013820;28;20108;-84
2022/06/02 11:42:37;;;;;;;43.50;25.15;;;25.80;99.90;;;;;;5036929;28;20033;-85
2022/06/02 11:45:37;;;;;;;58.15;36.83;;;26.10;99.90;;;;;;4937878;29;20039;-84
2022/06/02 11:48:30;;;;;;;25.10;10.07;;;25.90;99.90;;;;;;5036568;28;20060;-84
2022/06/02 11:51:33;;;;;;;27.02;8.63;;;26.00;99.90;;;;;;5041736;28;20043;-85
2022/06/02 11:54:17;;;;;;;21.92;10.07;;;25.90;99.90;;;;;;5000545;28;20034;-84
2022/06/02 11:56:58;;;;;;;20.90;9.30;;;26.10;99.90;;;;;;5003920;28;20017;-84
2022/06/02 11:59:45;;;;;;;11.60;6.38;;;26.20;99.90;;;;;;4997789;28;20260;-85
2022/06/02 12:02:31;;;;;;;17.60;7.57;;;27.70;99.90;;;;;;4993653;28;20604;-85
2022/06/02 12:05:54;;;;;;;23.38;7.20;;;30.60;99.90;;;;;;5000696;28;20026;-84
2022/06/02 12:08:53;;;;;;;14.67;7.63;;;31.30;99.90;;;;;;4936787;29;20023;-83
2022/06/02 12:11:30;;;;;;;16.70;10.32;;;31.10;99.90;;;;;;4999861;28;20028;-81
2022/06/02 12:14:22;;;;;;;21.00;8.55;;;31.00;99.90;;;;;;5000805;28;20531;-82
2022/06/02 12:17:27;;;;;;;17.52;7.15;;;30.90;99.90;;;;;;4995361;28;20018;-83
2022/06/02 12:20:10;;;;;;;14.88;7.40;;;31.10;99.90;;;;;;4993668;28;20026;-84
2022/06/02 12:23:00;;;;;;;18.73;8.98;;;32.00;99.90;;;;;;4989570;28;20056;-84
2022/06/02 12:25:56;;;;;;;14.07;6.10;;;32.40;99.90;;;;;;5001283;28;20053;-84
2022/06/02 12:28:25;;;;;;;14.85;7.47;;;33.00;99.90;;;;;;4997519;28;20029;-84
2022/06/02 12:31:09;;;;;;;12.77;7.03;;;32.50;99.90;;;;;;4999754;28;20113;-82
2022/06/02 12:33:41;;;;;;;21.58;12.60;;;33.60;99.90;;;;;;4991854;28;20037;-83
2022/06/02 12:36:30;;;;;;;24.73;13.30;;;34.30;99.90;;;;;;5001736;28;20030;-83
2022/06/02 12:39:39;;;;;;;14.45;6.97;;;34.40;99.90;;;;;;4998469;28;20390;-82
2022/06/02 12:42:51;;;;;;;11.30;5.65;;;35.10;99.90;;;;;;5010053;28;20018;-84
2022/06/02 12:45:25;;;;;;;12.23;5.90;;;36.00;99.90;;;;;;5003600;28;20029;-82
2022/06/02 12:48:11;;;;;;;15.65;5.53;;;36.90;99.90;;;;;;4993735;28;20102;-84
2022/06/02 12:50:51;;;;;;;17.58;7.50;;;36.70;99.90;;;;;;5017534;28;20129;-84
2022/06/02 12:53:58;;;;;;;17.88;5.75;;;36.60;99.90;;;;;;5022627;28;20041;-85
2022/06/02 12:56:58;;;;;;;13.50;5.53;;;36.40;99.90;;;;;;5020274;28;20118;-83
2022/06/02 12:59:42;;;;;;;14.27;5.63;;;36.00;99.90;;;;;;5022501;28;20025;-84
2022/06/02 13:02:34;;;;;;;15.20;4.95;;;35.70;99.90;;;;;;5022047;28;20480;-84
2022/06/02 13:05:33;;;;;;;7.68;4.05;;;36.50;99.90;;;;;;5025318;28;20104;-84
2022/06/02 13:08:26;;;;;;;14.02;4.28;;;37.40;99.90;;;;;;5016371;28;20033;-83
2022/06/02 13:11:01;;;;;;;8.55;4.57;;;38.50;99.90;;;;;;5041514;28;20034;-84
2022/06/02 13:14:16;;;;;;;18.10;10.73;;;39.10;99.90;;;;;;5025761;28;20029;-83
2022/06/02 13:17:14;;;;;;;8.63;3.47;;;39.70;97.20;;;;;;4973494;28;20037;-82
2022/06/02 13:20:01;;;;;;;11.23;4.97;;;38.30;95.50;;;;;;4993245;28;20037;-82
2022/06/02 13:22:47;;;;;;;14.10;5.20;;;37.80;94.60;;;;;;5018263;28;20073;-85
2022/06/02 13:25:35;;;;;;;23.50;14.30;;;37.70;94.60;;;;;;5021754;28;20053;-84
2022/06/02 13:28:28;;;;;;;10.32;6.25;;;37.20;93.00;;;;;;5026092;28;20104;-84
2022/06/02 13:31:25;;;;;;;11.48;5.68;;;36.80;95.40;;;;;;5037916;28;20044;-84
2022/06/02 13:34:11;;;;;;;9.48;4.82;;;36.60;95.70;;;;;;5025021;28;20037;-84
2022/06/02 13:36:40;;;;;;;19.10;11.10;;;36.50;93.60;;;;;;5028710;28;20029;-83
2022/06/02 13:39:28;;;;;;;11.88;5.55;;;36.20;94.20;;;;;;5021372;28;20037;-83
2022/06/02 13:41:53;;;;;;;10.77;5.22;;;36.50;95.50;;;;;;5032253;28;20057;-84
2022/06/02 13:44:58;;;;;;;8.27;3.65;;;37.10;95.70;;;;;;5023774;28;20433;-84
2022/06/02 13:47:45;;;;;;;9.57;4.13;;;36.80;93.20;;;;;;5035025;28;20033;-83
2022/06/02 13:50:31;;;;;;;13.85;4.20;;;35.90;94.20;;;;;;5020928;28;20025;-84
2022/06/02 13:53:12;;;;;;;10.00;3.30;;;35.60;94.80;;;;;;5031058;28;20602;-84
2022/06/02 13:59:01;;;;;;;14.45;3.92;;;35.60;92.90;;;;;;5043413;28;20048;-84
2022/06/02 14:02:13;;;;;;;11.38;3.50;;;34.20;93.00;;;;;;5039993;28;20498;-84
2022/06/02 14:05:07;;;;;;;9.90;3.78;;;33.80;93.90;;;;;;5002547;28;20037;-85
2022/06/02 14:07:48;;;;;;;7.70;3.92;;;34.30;94.00;;;;;;5045193;28;20025;-84
2022/06/02 14:10:42;;;;;;;8.25;3.65;;;33.80;94.40;;;;;;5037829;28;20021;-84
2022/06/02 14:13:14;;;;;;;9.20;3.25;;;33.90;94.20;;;;;;5037392;28;20116;-83
2022/06/02 14:16:20;;;;;;;14.45;3.28;;;33.50;94.00;;;;;;5040509;28;20021;-84
2022/06/02 14:19:18;;;;;;;5.90;3.20;;;33.50;95.40;;;;;;5036389;28;20029;-84
2022/06/02 14:22:10;;;;;;;11.85;4.03;;;34.20;94.10;;;;;;5042002;28;20017;-84
2022/06/02 14:25:06;;;;;;;7.27;3.60;;;34.10;94.30;;;;;;5023880;28;20064;-85
2022/06/02 14:28:25;;;;;;;8.45;4.10;;;34.60;94.50;;;;;;5039952;28;20632;-85
2022/06/02 14:30:51;;;;;;;9.23;3.08;;;34.10;95.20;;;;;;4998347;28;20484;-86
2022/06/02 14:33:22;;;;;;;8.93;3.90;;;34.40;93.00;;;;;;5039638;28;20095;-84
2022/06/02 14:36:02;;;;;;;9.50;3.38;;;34.10;94.50;;;;;;5041211;28;20032;-84
2022/06/02 14:38:49;;;;;;;11.13;4.28;;;33.50;94.80;;;;;;5040155;28;20025;-84
2022/06/02 14:41:39;;;;;;;10.13;3.75;;;33.10;94.40;;;;;;5040231;28;20495;-84
2022/06/02 14:44:14;;;;;;;12.25;3.35;;;32.30;95.40;;;;;;5037885;28;20017;-84
2022/06/02 14:46:46;;;;;;;9.73;4.30;;;31.80;96.10;;;;;;5037205;28;20033;-84
2022/06/02 14:49:23;;;;;;;12.02;4.00;;;31.40;95.30;;;;;;5040220;28;20131;-84
2022/06/02 14:52:21;;;;;;;10.55;4.13;;;31.30;95.80;;;;;;5046035;28;20049;-84